sensor_id;sensor_type;location;lat;lon;timestamp;P1;durP1;ratioP1;P2;durP2;ratioP2
3329;SDS011;1677;49.576;10.990;2023-04-24T00:01:39;2.87;;;2.63;;
3329;SDS011;1677;49.576;10.990;2023-04-24T00:04:05;2.95;;;2.65;;
3329;SDS011;1677;49.576;10.990;2023-04-24T00:06:31;4.20;;;2.53;;
3329;SDS011;1677;49.576;10.990;2023-04-24T00:09:02;2.70;;;2.40;;
3329;SDS011;1677;49.576;10.990;2023-04-24T00:11:30;5.43;;;2.37;;
3329;SDS011;1677;49.576;10.990;2023-04-24T00:13:56;2.83;;;2.30;;
3329;SDS011;1677;49.576;10.990;2023-04-24T00:16:22;5.03;;;2.60;;
3329;SDS011;1677;49.576;10.990;2023-04-24T00:18:48;3.63;;;2.07;;
3329;SDS011;1677;49.576;10.990;2023-04-24T00:21:14;2.67;;;2.27;;
3329;SDS011;1677;49.576;10.990;2023-04-24T00:23:42;3.03;;;2.50;;
3329;SDS011;1677;49.576;10.990;2023-04-24T00:26:08;3.30;;;2.20;;
3329;SDS011;1677;49.576;10.990;2023-04-24T00:28:34;3.07;;;2.60;;
3329;SDS011;1677;49.576;10.990;2023-04-24T00:31:00;3.43;;;2.37;;
3329;SDS011;1677;49.576;10.990;2023-04-24T00:33:25;3.53;;;2.50;;
3329;SDS011;1677;49.576;10.990;2023-04-24T00:35:51;2.77;;;2.50;;
3329;SDS011;1677;49.576;10.990;2023-04-24T00:38:16;3.33;;;2.33;;
3329;SDS011;1677;49.576;10.990;2023-04-24T00:40:42;4.07;;;2.47;;
3329;SDS011;1677;49.576;10.990;2023-04-24T00:43:08;3.10;;;2.60;;
3329;SDS011;1677;49.576;10.990;2023-04-24T00:45:33;3.07;;;2.40;;
3329;SDS011;1677;49.576;10.990;2023-04-24T00:47:59;3.87;;;2.50;;
3329;SDS011;1677;49.576;10.990;2023-04-24T00:50:25;4.73;;;3.40;;
3329;SDS011;1677;49.576;10.990;2023-04-24T00:52:51;4.37;;;2.50;;
3329;SDS011;1677;49.576;10.990;2023-04-24T00:55:17;2.97;;;2.50;;
3329;SDS011;1677;49.576;10.990;2023-04-24T00:57:43;2.73;;;2.17;;
3329;SDS011;1677;49.576;10.990;2023-04-24T01:00:10;3.50;;;2.43;;
3329;SDS011;1677;49.576;10.990;2023-04-24T01:02:40;3.37;;;2.30;;
3329;SDS011;1677;49.576;10.990;2023-04-24T01:05:10;3.03;;;2.72;;
3329;SDS011;1677;49.576;10.990;2023-04-24T01:07:40;3.90;;;2.40;;
3329;SDS011;1677;49.576;10.990;2023-04-24T01:10:09;2.90;;;2.70;;
3329;SDS011;1677;49.576;10.990;2023-04-24T01:12:35;2.80;;;2.60;;
3329;SDS011;1677;49.576;10.990;2023-04-24T01:15:02;4.47;;;1.87;;
3329;SDS011;1677;49.576;10.990;2023-04-24T01:17:28;5.10;;;2.40;;
3329;SDS011;1677;49.576;10.990;2023-04-24T01:19:54;3.77;;;2.43;;
3329;SDS011;1677;49.576;10.990;2023-04-24T01:22:21;2.60;;;2.33;;
3329;SDS011;1677;49.576;10.990;2023-04-24T01:24:47;3.27;;;2.80;;
3329;SDS011;1677;49.576;10.990;2023-04-24T01:27:13;2.55;;;2.33;;
3329;SDS011;1677;49.576;10.990;2023-04-24T01:29:39;2.23;;;2.00;;
3329;SDS011;1677;49.576;10.990;2023-04-24T01:32:05;2.93;;;2.20;;
3329;SDS011;1677;49.576;10.990;2023-04-24T01:34:30;2.47;;;2.27;;
3329;SDS011;1677;49.576;10.990;2023-04-24T01:36:56;2.73;;;1.93;;
3329;SDS011;1677;49.576;10.990;2023-04-24T01:39:22;3.20;;;1.93;;
3329;SDS011;1677;49.576;10.990;2023-04-24T01:41:50;2.07;;;1.87;;
3329;SDS011;1677;49.576;10.990;2023-04-24T01:44:19;2.40;;;2.20;;
3329;SDS011;1677;49.576;10.990;2023-04-24T01:46:45;2.30;;;2.10;;
3329;SDS011;1677;49.576;10.990;2023-04-24T01:49:11;2.20;;;2.00;;
3329;SDS011;1677;49.576;10.990;2023-04-24T01:51:37;2.70;;;2.17;;
3329;SDS011;1677;49.576;10.990;2023-04-24T01:54:02;2.27;;;2.03;;
3329;SDS011;1677;49.576;10.990;2023-04-24T01:56:33;2.10;;;1.73;;
3329;SDS011;1677;49.576;10.990;2023-04-24T01:59:00;2.43;;;2.20;;
3329;SDS011;1677;49.576;10.990;2023-04-24T02:01:32;3.35;;;2.22;;
3329;SDS011;1677;49.576;10.990;2023-04-24T02:04:02;3.72;;;2.05;;
3329;SDS011;1677;49.576;10.990;2023-04-24T02:06:28;2.63;;;2.00;;
3329;SDS011;1677;49.576;10.990;2023-04-24T02:08:53;5.63;;;2.20;;
3329;SDS011;1677;49.576;10.990;2023-04-24T02:11:19;1.67;;;1.57;;
3329;SDS011;1677;49.576;10.990;2023-04-24T02:13:44;2.03;;;1.83;;
3329;SDS011;1677;49.576;10.990;2023-04-24T02:16:10;1.60;;;1.50;;
3329;SDS011;1677;49.576;10.990;2023-04-24T02:18:35;1.70;;;1.60;;
3329;SDS011;1677;49.576;10.990;2023-04-24T02:21:01;1.77;;;1.50;;
3329;SDS011;1677;49.576;10.990;2023-04-24T02:23:27;2.23;;;1.47;;
3329;SDS011;1677;49.576;10.990;2023-04-24T02:25:52;1.90;;;1.40;;
3329;SDS011;1677;49.576;10.990;2023-04-24T02:28:18;1.90;;;1.70;;
3329;SDS011;1677;49.576;10.990;2023-04-24T02:30:44;1.98;;;1.63;;
3329;SDS011;1677;49.576;10.990;2023-04-24T02:33:10;1.83;;;1.70;;
3329;SDS011;1677;49.576;10.990;2023-04-24T02:35:37;2.40;;;1.70;;
3329;SDS011;1677;49.576;10.990;2023-04-24T02:38:02;2.40;;;1.70;;
3329;SDS011;1677;49.576;10.990;2023-04-24T02:40:28;1.70;;;1.60;;
3329;SDS011;1677;49.576;10.990;2023-04-24T02:42:54;2.00;;;1.20;;
3329;SDS011;1677;49.576;10.990;2023-04-24T02:45:19;2.10;;;1.90;;
3329;SDS011;1677;49.576;10.990;2023-04-24T02:47:45;1.50;;;1.30;;
3329;SDS011;1677;49.576;10.990;2023-04-24T02:50:11;1.60;;;1.47;;
3329;SDS011;1677;49.576;10.990;2023-04-24T02:52:36;3.00;;;1.97;;
3329;SDS011;1677;49.576;10.990;2023-04-24T02:55:02;3.77;;;1.60;;
3329;SDS011;1677;49.576;10.990;2023-04-24T02:57:28;2.30;;;1.60;;
3329;SDS011;1677;49.576;10.990;2023-04-24T02:59:53;1.60;;;1.50;;
3329;SDS011;1677;49.576;10.990;2023-04-24T03:02:19;2.13;;;1.70;;
3329;SDS011;1677;49.576;10.990;2023-04-24T03:04:45;1.85;;;1.42;;
3329;SDS011;1677;49.576;10.990;2023-04-24T03:07:12;1.85;;;1.70;;
3329;SDS011;1677;49.576;10.990;2023-04-24T03:09:39;2.53;;;1.83;;
3329;SDS011;1677;49.576;10.990;2023-04-24T03:12:05;4.47;;;1.90;;
3329;SDS011;1677;49.576;10.990;2023-04-24T03:14:31;2.80;;;2.00;;
3329;SDS011;1677;49.576;10.990;2023-04-24T03:16:56;2.30;;;1.30;;
3329;SDS011;1677;49.576;10.990;2023-04-24T03:19:22;1.80;;;1.50;;
3329;SDS011;1677;49.576;10.990;2023-04-24T03:21:48;3.95;;;1.58;;
3329;SDS011;1677;49.576;10.990;2023-04-24T03:24:14;7.33;;;1.80;;
3329;SDS011;1677;49.576;10.990;2023-04-24T03:26:39;2.70;;;2.00;;
3329;SDS011;1677;49.576;10.990;2023-04-24T03:29:05;1.43;;;1.33;;
3329;SDS011;1677;49.576;10.990;2023-04-24T03:31:30;2.70;;;1.70;;
3329;SDS011;1677;49.576;10.990;2023-04-24T03:33:56;2.03;;;1.20;;
3329;SDS011;1677;49.576;10.990;2023-04-24T03:36:21;2.50;;;1.60;;
3329;SDS011;1677;49.576;10.990;2023-04-24T03:38:47;3.20;;;1.40;;
3329;SDS011;1677;49.576;10.990;2023-04-24T03:41:13;2.30;;;1.40;;
3329;SDS011;1677;49.576;10.990;2023-04-24T03:43:38;1.63;;;1.50;;
3329;SDS011;1677;49.576;10.990;2023-04-24T03:46:04;1.70;;;1.50;;
3329;SDS011;1677;49.576;10.990;2023-04-24T03:48:29;2.07;;;1.73;;
3329;SDS011;1677;49.576;10.990;2023-04-24T03:50:55;1.33;;;1.23;;
3329;SDS011;1677;49.576;10.990;2023-04-24T03:53:21;2.10;;;1.60;;
3329;SDS011;1677;49.576;10.990;2023-04-24T03:55:46;1.67;;;1.50;;
3329;SDS011;1677;49.576;10.990;2023-04-24T03:58:12;1.77;;;1.67;;
3329;SDS011;1677;49.576;10.990;2023-04-24T04:00:41;4.07;;;2.10;;
3329;SDS011;1677;49.576;10.990;2023-04-24T04:03:06;2.70;;;1.80;;
3329;SDS011;1677;49.576;10.990;2023-04-24T04:05:32;2.53;;;2.00;;
3329;SDS011;1677;49.576;10.990;2023-04-24T04:07:57;2.63;;;2.20;;
3329;SDS011;1677;49.576;10.990;2023-04-24T04:10:23;3.67;;;2.03;;
3329;SDS011;1677;49.576;10.990;2023-04-24T04:12:48;2.10;;;1.80;;
3329;SDS011;1677;49.576;10.990;2023-04-24T04:15:14;1.87;;;1.53;;
3329;SDS011;1677;49.576;10.990;2023-04-24T04:17:40;2.55;;;1.67;;
3329;SDS011;1677;49.576;10.990;2023-04-24T04:20:05;1.57;;;1.40;;
3329;SDS011;1677;49.576;10.990;2023-04-24T04:22:36;2.22;;;1.67;;
3329;SDS011;1677;49.576;10.990;2023-04-24T04:25:02;2.10;;;1.60;;
3329;SDS011;1677;49.576;10.990;2023-04-24T04:27:28;1.67;;;1.57;;
3329;SDS011;1677;49.576;10.990;2023-04-24T04:29:57;1.80;;;1.70;;
3329;SDS011;1677;49.576;10.990;2023-04-24T04:32:30;1.75;;;1.42;;
3329;SDS011;1677;49.576;10.990;2023-04-24T04:35:02;2.20;;;1.60;;
3329;SDS011;1677;49.576;10.990;2023-04-24T04:37:32;4.65;;;1.95;;
3329;SDS011;1677;49.576;10.990;2023-04-24T04:39:58;3.05;;;1.77;;
3329;SDS011;1677;49.576;10.990;2023-04-24T04:42:24;2.20;;;1.80;;
3329;SDS011;1677;49.576;10.990;2023-04-24T04:44:51;8.40;;;1.90;;
3329;SDS011;1677;49.576;10.990;2023-04-24T04:47:17;2.70;;;1.60;;
3329;SDS011;1677;49.576;10.990;2023-04-24T04:49:46;2.30;;;1.70;;
3329;SDS011;1677;49.576;10.990;2023-04-24T04:52:13;5.57;;;1.75;;
3329;SDS011;1677;49.576;10.990;2023-04-24T04:54:38;2.33;;;1.40;;
3329;SDS011;1677;49.576;10.990;2023-04-24T04:57:04;2.43;;;1.63;;
3329;SDS011;1677;49.576;10.990;2023-04-24T04:59:30;1.95;;;1.40;;
3329;SDS011;1677;49.576;10.990;2023-04-24T05:01:56;1.93;;;1.73;;
3329;SDS011;1677;49.576;10.990;2023-04-24T05:04:21;6.30;;;1.97;;
3329;SDS011;1677;49.576;10.990;2023-04-24T05:06:47;2.57;;;2.13;;
3329;SDS011;1677;49.576;10.990;2023-04-24T05:09:12;3.70;;;2.70;;
3329;SDS011;1677;49.576;10.990;2023-04-24T05:11:38;2.33;;;1.80;;
3329;SDS011;1677;49.576;10.990;2023-04-24T05:14:03;2.70;;;2.50;;
3329;SDS011;1677;49.576;10.990;2023-04-24T05:16:29;3.10;;;2.60;;
3329;SDS011;1677;49.576;10.990;2023-04-24T05:18:55;4.65;;;2.60;;
3329;SDS011;1677;49.576;10.990;2023-04-24T05:21:21;2.53;;;2.33;;
3329;SDS011;1677;49.576;10.990;2023-04-24T05:23:47;1.87;;;1.40;;
3329;SDS011;1677;49.576;10.990;2023-04-24T05:26:13;5.33;;;2.00;;
3329;SDS011;1677;49.576;10.990;2023-04-24T05:28:39;11.23;;;3.27;;
3329;SDS011;1677;49.576;10.990;2023-04-24T05:31:05;3.03;;;1.67;;
3329;SDS011;1677;49.576;10.990;2023-04-24T05:33:31;2.27;;;1.67;;
3329;SDS011;1677;49.576;10.990;2023-04-24T05:35:56;2.53;;;2.00;;
3329;SDS011;1677;49.576;10.990;2023-04-24T05:38:22;2.30;;;1.73;;
3329;SDS011;1677;49.576;10.990;2023-04-24T05:40:48;1.83;;;1.73;;
3329;SDS011;1677;49.576;10.990;2023-04-24T05:43:13;2.10;;;1.90;;
3329;SDS011;1677;49.576;10.990;2023-04-24T05:45:39;2.33;;;1.80;;
3329;SDS011;1677;49.576;10.990;2023-04-24T05:48:04;8.13;;;1.97;;
3329;SDS011;1677;49.576;10.990;2023-04-24T05:50:30;3.57;;;2.10;;
3329;SDS011;1677;49.576;10.990;2023-04-24T05:52:56;1.80;;;1.70;;
3329;SDS011;1677;49.576;10.990;2023-04-24T05:55:26;2.90;;;2.10;;
3329;SDS011;1677;49.576;10.990;2023-04-24T05:57:52;3.73;;;1.40;;
3329;SDS011;1677;49.576;10.990;2023-04-24T06:00:18;4.33;;;1.90;;
3329;SDS011;1677;49.576;10.990;2023-04-24T06:02:45;3.53;;;1.83;;
3329;SDS011;1677;49.576;10.990;2023-04-24T06:05:11;3.53;;;1.70;;
3329;SDS011;1677;49.576;10.990;2023-04-24T06:07:36;7.13;;;1.83;;
3329;SDS011;1677;49.576;10.990;2023-04-24T06:10:02;3.67;;;1.63;;
3329;SDS011;1677;49.576;10.990;2023-04-24T06:12:28;2.80;;;1.57;;
3329;SDS011;1677;49.576;10.990;2023-04-24T06:14:53;3.63;;;1.50;;
3329;SDS011;1677;49.576;10.990;2023-04-24T06:17:20;2.03;;;1.53;;
3329;SDS011;1677;49.576;10.990;2023-04-24T06:19:46;2.60;;;2.00;;
3329;SDS011;1677;49.576;10.990;2023-04-24T06:22:12;2.10;;;1.70;;
3329;SDS011;1677;49.576;10.990;2023-04-24T06:24:39;1.60;;;1.50;;
3329;SDS011;1677;49.576;10.990;2023-04-24T06:27:05;3.87;;;2.20;;
3329;SDS011;1677;49.576;10.990;2023-04-24T06:29:31;3.20;;;2.30;;
3329;SDS011;1677;49.576;10.990;2023-04-24T06:31:58;2.37;;;1.33;;
3329;SDS011;1677;49.576;10.990;2023-04-24T06:34:23;1.57;;;1.47;;
3329;SDS011;1677;49.576;10.990;2023-04-24T06:36:49;2.70;;;1.57;;
3329;SDS011;1677;49.576;10.990;2023-04-24T06:39:14;1.37;;;1.27;;
3329;SDS011;1677;49.576;10.990;2023-04-24T06:41:40;4.87;;;1.30;;
3329;SDS011;1677;49.576;10.990;2023-04-24T06:44:06;2.00;;;1.00;;
3329;SDS011;1677;49.576;10.990;2023-04-24T06:46:32;1.90;;;1.40;;
3329;SDS011;1677;49.576;10.990;2023-04-24T06:48:57;2.03;;;1.30;;
3329;SDS011;1677;49.576;10.990;2023-04-24T06:51:23;2.03;;;0.93;;
3329;SDS011;1677;49.576;10.990;2023-04-24T06:53:50;2.97;;;1.50;;
3329;SDS011;1677;49.576;10.990;2023-04-24T06:56:16;1.10;;;1.00;;
3329;SDS011;1677;49.576;10.990;2023-04-24T06:58:42;1.80;;;1.20;;
3329;SDS011;1677;49.576;10.990;2023-04-24T07:01:08;1.73;;;1.10;;
3329;SDS011;1677;49.576;10.990;2023-04-24T07:03:34;1.58;;;1.40;;
3329;SDS011;1677;49.576;10.990;2023-04-24T07:06:00;1.67;;;1.20;;
3329;SDS011;1677;49.576;10.990;2023-04-24T07:08:26;2.27;;;1.37;;
3329;SDS011;1677;49.576;10.990;2023-04-24T07:10:51;2.63;;;1.40;;
3329;SDS011;1677;49.576;10.990;2023-04-24T07:13:17;2.23;;;1.50;;
3329;SDS011;1677;49.576;10.990;2023-04-24T07:15:42;1.53;;;1.23;;
3329;SDS011;1677;49.576;10.990;2023-04-24T07:18:08;4.40;;;1.30;;
3329;SDS011;1677;49.576;10.990;2023-04-24T07:20:34;1.10;;;1.00;;
3329;SDS011;1677;49.576;10.990;2023-04-24T07:23:00;1.47;;;0.93;;
3329;SDS011;1677;49.576;10.990;2023-04-24T07:25:25;2.30;;;1.37;;
3329;SDS011;1677;49.576;10.990;2023-04-24T07:27:51;1.20;;;1.00;;
3329;SDS011;1677;49.576;10.990;2023-04-24T07:30:18;1.20;;;0.90;;
3329;SDS011;1677;49.576;10.990;2023-04-24T07:32:43;1.83;;;1.00;;
3329;SDS011;1677;49.576;10.990;2023-04-24T07:35:09;2.37;;;1.00;;
3329;SDS011;1677;49.576;10.990;2023-04-24T07:37:35;2.30;;;1.37;;
3329;SDS011;1677;49.576;10.990;2023-04-24T07:40:01;1.60;;;1.20;;
3329;SDS011;1677;49.576;10.990;2023-04-24T07:42:27;1.53;;;1.20;;
3329;SDS011;1677;49.576;10.990;2023-04-24T07:44:53;1.50;;;1.30;;
3329;SDS011;1677;49.576;10.990;2023-04-24T07:47:18;1.70;;;1.30;;
3329;SDS011;1677;49.576;10.990;2023-04-24T07:49:44;1.23;;;1.10;;
3329;SDS011;1677;49.576;10.990;2023-04-24T07:52:10;1.80;;;1.37;;
3329;SDS011;1677;49.576;10.990;2023-04-24T07:54:35;1.97;;;1.37;;
3329;SDS011;1677;49.576;10.990;2023-04-24T07:57:02;2.25;;;1.60;;
3329;SDS011;1677;49.576;10.990;2023-04-24T07:59:28;3.20;;;1.20;;
3329;SDS011;1677;49.576;10.990;2023-04-24T08:01:53;1.43;;;1.30;;
3329;SDS011;1677;49.576;10.990;2023-04-24T08:04:19;1.20;;;1.10;;
3329;SDS011;1677;49.576;10.990;2023-04-24T08:06:45;1.73;;;1.40;;
3329;SDS011;1677;49.576;10.990;2023-04-24T08:09:12;1.60;;;1.20;;
3329;SDS011;1677;49.576;10.990;2023-04-24T08:11:38;2.00;;;1.80;;
3329;SDS011;1677;49.576;10.990;2023-04-24T08:14:03;1.60;;;1.30;;
3329;SDS011;1677;49.576;10.990;2023-04-24T08:16:29;2.50;;;1.50;;
3329;SDS011;1677;49.576;10.990;2023-04-24T08:18:55;1.63;;;1.53;;
3329;SDS011;1677;49.576;10.990;2023-04-24T08:21:20;1.70;;;1.60;;
3329;SDS011;1677;49.576;10.990;2023-04-24T08:23:46;1.93;;;1.73;;
3329;SDS011;1677;49.576;10.990;2023-04-24T08:26:12;1.70;;;1.60;;
3329;SDS011;1677;49.576;10.990;2023-04-24T08:28:38;1.60;;;1.50;;
3329;SDS011;1677;49.576;10.990;2023-04-24T08:31:04;2.50;;;1.70;;
3329;SDS011;1677;49.576;10.990;2023-04-24T08:33:30;2.43;;;1.73;;
3329;SDS011;1677;49.576;10.990;2023-04-24T08:35:59;2.37;;;2.17;;
3329;SDS011;1677;49.576;10.990;2023-04-24T08:38:27;3.30;;;2.37;;
3329;SDS011;1677;49.576;10.990;2023-04-24T08:40:52;2.57;;;2.23;;
3329;SDS011;1677;49.576;10.990;2023-04-24T08:43:18;4.80;;;2.40;;
3329;SDS011;1677;49.576;10.990;2023-04-24T08:45:47;4.27;;;2.40;;
3329;SDS011;1677;49.576;10.990;2023-04-24T08:48:12;5.07;;;2.35;;
3329;SDS011;1677;49.576;10.990;2023-04-24T08:50:39;2.17;;;1.90;;
3329;SDS011;1677;49.576;10.990;2023-04-24T08:53:07;4.73;;;2.00;;
3329;SDS011;1677;49.576;10.990;2023-04-24T08:55:33;1.90;;;1.50;;
3329;SDS011;1677;49.576;10.990;2023-04-24T08:58:00;5.67;;;2.20;;
3329;SDS011;1677;49.576;10.990;2023-04-24T09:00:27;4.80;;;2.30;;
3329;SDS011;1677;49.576;10.990;2023-04-24T09:02:53;5.90;;;2.97;;
3329;SDS011;1677;49.576;10.990;2023-04-24T09:05:20;4.40;;;2.37;;
3329;SDS011;1677;49.576;10.990;2023-04-24T09:07:53;3.20;;;2.90;;
3329;SDS011;1677;49.576;10.990;2023-04-24T09:10:21;2.57;;;2.37;;
3329;SDS011;1677;49.576;10.990;2023-04-24T09:12:48;2.50;;;2.30;;
3329;SDS011;1677;49.576;10.990;2023-04-24T09:15:18;2.50;;;2.30;;
3329;SDS011;1677;49.576;10.990;2023-04-24T09:17:45;2.30;;;2.10;;
3329;SDS011;1677;49.576;10.990;2023-04-24T09:20:11;2.27;;;2.07;;
3329;SDS011;1677;49.576;10.990;2023-04-24T09:22:37;2.40;;;2.20;;
3329;SDS011;1677;49.576;10.990;2023-04-24T09:25:03;5.40;;;2.00;;
3329;SDS011;1677;49.576;10.990;2023-04-24T09:27:31;2.10;;;1.90;;
3329;SDS011;1677;49.576;10.990;2023-04-24T09:30:01;3.20;;;2.90;;
3329;SDS011;1677;49.576;10.990;2023-04-24T09:32:26;2.27;;;2.07;;
3329;SDS011;1677;49.576;10.990;2023-04-24T09:35:08;1.73;;;1.63;;
3329;SDS011;1677;49.576;10.990;2023-04-24T09:37:42;1.87;;;1.67;;
3329;SDS011;1677;49.576;10.990;2023-04-24T09:42:35;5.20;;;1.97;;
3329;SDS011;1677;49.576;10.990;2023-04-24T09:45:01;2.07;;;1.87;;
3329;SDS011;1677;49.576;10.990;2023-04-24T09:47:27;2.80;;;1.90;;
3329;SDS011;1677;49.576;10.990;2023-04-24T09:49:54;2.83;;;1.90;;
3329;SDS011;1677;49.576;10.990;2023-04-24T09:52:23;2.47;;;2.10;;
3329;SDS011;1677;49.576;10.990;2023-04-24T09:54:53;4.90;;;2.00;;
3329;SDS011;1677;49.576;10.990;2023-04-24T09:57:19;1.80;;;1.40;;
3329;SDS011;1677;49.576;10.990;2023-04-24T09:59:45;1.57;;;1.47;;
3329;SDS011;1677;49.576;10.990;2023-04-24T10:02:18;4.10;;;1.80;;
3329;SDS011;1677;49.576;10.990;2023-04-24T10:04:53;2.13;;;1.90;;
3329;SDS011;1677;49.576;10.990;2023-04-24T10:07:27;1.60;;;1.50;;
3329;SDS011;1677;49.576;10.990;2023-04-24T10:09:53;4.07;;;2.17;;
3329;SDS011;1677;49.576;10.990;2023-04-24T10:12:19;1.93;;;1.60;;
3329;SDS011;1677;49.576;10.990;2023-04-24T10:14:46;1.50;;;1.40;;
3329;SDS011;1677;49.576;10.990;2023-04-24T10:17:11;1.63;;;1.40;;
3329;SDS011;1677;49.576;10.990;2023-04-24T10:19:38;6.30;;;2.20;;
3329;SDS011;1677;49.576;10.990;2023-04-24T10:22:07;1.53;;;1.30;;
3329;SDS011;1677;49.576;10.990;2023-04-24T10:24:33;2.03;;;1.60;;
3329;SDS011;1677;49.576;10.990;2023-04-24T10:27:00;2.57;;;1.20;;
3329;SDS011;1677;49.576;10.990;2023-04-24T10:29:26;1.83;;;1.40;;
3329;SDS011;1677;49.576;10.990;2023-04-24T10:31:54;1.30;;;1.00;;
3329;SDS011;1677;49.576;10.990;2023-04-24T10:34:20;1.50;;;1.30;;
3329;SDS011;1677;49.576;10.990;2023-04-24T10:36:48;2.60;;;1.00;;
3329;SDS011;1677;49.576;10.990;2023-04-24T10:39:19;1.43;;;1.17;;
3329;SDS011;1677;49.576;10.990;2023-04-24T10:41:46;1.33;;;0.80;;
3329;SDS011;1677;49.576;10.990;2023-04-24T10:44:14;1.20;;;1.10;;
3329;SDS011;1677;49.576;10.990;2023-04-24T10:46:46;5.53;;;1.40;;
3329;SDS011;1677;49.576;10.990;2023-04-24T10:49:19;1.10;;;1.00;;
3329;SDS011;1677;49.576;10.990;2023-04-24T10:51:54;1.20;;;1.10;;
3329;SDS011;1677;49.576;10.990;2023-04-24T10:54:29;1.63;;;1.10;;
3329;SDS011;1677;49.576;10.990;2023-04-24T10:59:47;3.27;;;1.10;;
3329;SDS011;1677;49.576;10.990;2023-04-24T11:02:14;1.50;;;1.40;;
3329;SDS011;1677;49.576;10.990;2023-04-24T11:04:40;1.20;;;1.10;;
3329;SDS011;1677;49.576;10.990;2023-04-24T11:07:08;1.50;;;1.30;;
3329;SDS011;1677;49.576;10.990;2023-04-24T11:09:34;1.37;;;1.20;;
3329;SDS011;1677;49.576;10.990;2023-04-24T11:12:08;1.90;;;1.67;;
3329;SDS011;1677;49.576;10.990;2023-04-24T11:17:38;2.25;;;1.52;;
3329;SDS011;1677;49.576;10.990;2023-04-24T11:20:07;2.03;;;1.70;;
3329;SDS011;1677;49.576;10.990;2023-04-24T11:22:35;2.20;;;1.53;;
3329;SDS011;1677;49.576;10.990;2023-04-24T11:25:02;1.90;;;1.47;;
3329;SDS011;1677;49.576;10.990;2023-04-24T11:27:29;1.30;;;1.20;;
3329;SDS011;1677;49.576;10.990;2023-04-24T11:32:35;2.57;;;1.80;;
3329;SDS011;1677;49.576;10.990;2023-04-24T11:35:04;2.13;;;1.67;;
3329;SDS011;1677;49.576;10.990;2023-04-24T11:37:47;2.00;;;1.70;;
3329;SDS011;1677;49.576;10.990;2023-04-24T11:40:15;1.60;;;1.50;;
3329;SDS011;1677;49.576;10.990;2023-04-24T11:42:44;1.50;;;1.40;;
3329;SDS011;1677;49.576;10.990;2023-04-24T11:45:14;3.87;;;1.80;;
3329;SDS011;1677;49.576;10.990;2023-04-24T11:47:41;1.77;;;1.50;;
3329;SDS011;1677;49.576;10.990;2023-04-24T11:50:08;1.60;;;1.40;;
3329;SDS011;1677;49.576;10.990;2023-04-24T11:52:39;2.57;;;1.60;;
3329;SDS011;1677;49.576;10.990;2023-04-24T11:55:07;1.80;;;1.58;;
3329;SDS011;1677;49.576;10.990;2023-04-24T11:57:48;2.57;;;1.90;;
3329;SDS011;1677;49.576;10.990;2023-04-24T12:00:15;1.97;;;1.73;;
3329;SDS011;1677;49.576;10.990;2023-04-24T12:02:45;2.90;;;1.50;;
3329;SDS011;1677;49.576;10.990;2023-04-24T12:05:25;2.23;;;1.90;;
3329;SDS011;1677;49.576;10.990;2023-04-24T12:07:52;1.80;;;1.60;;
3329;SDS011;1677;49.576;10.990;2023-04-24T12:10:21;2.30;;;2.10;;
3329;SDS011;1677;49.576;10.990;2023-04-24T12:12:48;2.60;;;2.03;;
3329;SDS011;1677;49.576;10.990;2023-04-24T12:15:16;1.77;;;1.57;;
3329;SDS011;1677;49.576;10.990;2023-04-24T12:17:43;2.10;;;1.83;;
3329;SDS011;1677;49.576;10.990;2023-04-24T12:20:08;1.93;;;1.60;;
3329;SDS011;1677;49.576;10.990;2023-04-24T12:22:51;3.23;;;2.10;;
3329;SDS011;1677;49.576;10.990;2023-04-24T12:25:20;3.10;;;1.90;;
3329;SDS011;1677;49.576;10.990;2023-04-24T12:27:51;2.30;;;2.10;;
3329;SDS011;1677;49.576;10.990;2023-04-24T12:30:18;3.50;;;2.23;;
3329;SDS011;1677;49.576;10.990;2023-04-24T12:32:48;2.40;;;2.13;;
3329;SDS011;1677;49.576;10.990;2023-04-24T12:35:24;2.70;;;2.10;;
3329;SDS011;1677;49.576;10.990;2023-04-24T12:37:52;2.90;;;2.23;;
3329;SDS011;1677;49.576;10.990;2023-04-24T12:40:18;2.50;;;2.30;;
3329;SDS011;1677;49.576;10.990;2023-04-24T12:42:46;2.50;;;2.10;;
3329;SDS011;1677;49.576;10.990;2023-04-24T12:45:14;2.20;;;2.00;;
3329;SDS011;1677;49.576;10.990;2023-04-24T12:47:41;2.27;;;2.07;;
3329;SDS011;1677;49.576;10.990;2023-04-24T12:50:08;2.30;;;2.10;;
3329;SDS011;1677;49.576;10.990;2023-04-24T12:52:34;2.10;;;1.90;;
3329;SDS011;1677;49.576;10.990;2023-04-24T12:55:00;1.90;;;1.70;;
3329;SDS011;1677;49.576;10.990;2023-04-24T12:57:26;2.23;;;1.87;;
3329;SDS011;1677;49.576;10.990;2023-04-24T12:59:54;3.87;;;1.93;;
3329;SDS011;1677;49.576;10.990;2023-04-24T13:02:21;3.60;;;1.70;;
3329;SDS011;1677;49.576;10.990;2023-04-24T13:04:47;1.90;;;1.70;;
3329;SDS011;1677;49.576;10.990;2023-04-24T13:07:14;2.50;;;1.67;;
3329;SDS011;1677;49.576;10.990;2023-04-24T13:09:40;2.00;;;1.80;;
3329;SDS011;1677;49.576;10.990;2023-04-24T13:12:07;1.97;;;1.67;;
3329;SDS011;1677;49.576;10.990;2023-04-24T13:14:33;2.40;;;1.57;;
3329;SDS011;1677;49.576;10.990;2023-04-24T13:16:59;2.30;;;2.00;;
3329;SDS011;1677;49.576;10.990;2023-04-24T13:19:25;2.90;;;1.80;;
3329;SDS011;1677;49.576;10.990;2023-04-24T13:21:51;1.70;;;1.60;;
3329;SDS011;1677;49.576;10.990;2023-04-24T13:24:17;3.03;;;1.90;;
3329;SDS011;1677;49.576;10.990;2023-04-24T13:26:42;1.70;;;1.60;;
3329;SDS011;1677;49.576;10.990;2023-04-24T13:29:08;2.30;;;2.00;;
3329;SDS011;1677;49.576;10.990;2023-04-24T13:31:34;1.67;;;1.57;;
3329;SDS011;1677;49.576;10.990;2023-04-24T13:34:00;1.97;;;1.70;;
3329;SDS011;1677;49.576;10.990;2023-04-24T13:36:27;2.40;;;1.60;;
3329;SDS011;1677;49.576;10.990;2023-04-24T13:38:52;2.70;;;2.10;;
3329;SDS011;1677;49.576;10.990;2023-04-24T13:41:18;3.17;;;2.30;;
3329;SDS011;1677;49.576;10.990;2023-04-24T13:43:43;2.67;;;1.90;;
3329;SDS011;1677;49.576;10.990;2023-04-24T13:46:09;2.73;;;2.33;;
3329;SDS011;1677;49.576;10.990;2023-04-24T13:48:35;3.13;;;2.83;;
3329;SDS011;1677;49.576;10.990;2023-04-24T13:51:00;2.00;;;1.70;;
3329;SDS011;1677;49.576;10.990;2023-04-24T13:53:26;2.13;;;1.80;;
3329;SDS011;1677;49.576;10.990;2023-04-24T13:55:51;2.20;;;1.30;;
3329;SDS011;1677;49.576;10.990;2023-04-24T13:58:17;1.90;;;1.23;;
3329;SDS011;1677;49.576;10.990;2023-04-24T14:00:42;1.60;;;1.50;;
3329;SDS011;1677;49.576;10.990;2023-04-24T14:03:08;1.60;;;1.40;;
3329;SDS011;1677;49.576;10.990;2023-04-24T14:05:34;1.93;;;1.50;;
3329;SDS011;1677;49.576;10.990;2023-04-24T14:07:59;1.60;;;1.40;;
3329;SDS011;1677;49.576;10.990;2023-04-24T14:10:25;2.47;;;2.17;;
3329;SDS011;1677;49.576;10.990;2023-04-24T14:12:52;2.10;;;1.90;;
3329;SDS011;1677;49.576;10.990;2023-04-24T14:15:18;2.00;;;1.80;;
3329;SDS011;1677;49.576;10.990;2023-04-24T14:17:44;3.63;;;1.97;;
3329;SDS011;1677;49.576;10.990;2023-04-24T14:20:09;2.10;;;1.87;;
3329;SDS011;1677;49.576;10.990;2023-04-24T14:22:35;2.25;;;2.05;;
3329;SDS011;1677;49.576;10.990;2023-04-24T14:25:01;2.80;;;2.03;;
3329;SDS011;1677;49.576;10.990;2023-04-24T14:27:26;2.90;;;2.20;;
3329;SDS011;1677;49.576;10.990;2023-04-24T14:29:52;2.47;;;2.23;;
3329;SDS011;1677;49.576;10.990;2023-04-24T14:32:17;4.43;;;2.63;;
3329;SDS011;1677;49.576;10.990;2023-04-24T14:34:43;1.97;;;1.80;;
3329;SDS011;1677;49.576;10.990;2023-04-24T14:37:09;2.07;;;1.87;;
3329;SDS011;1677;49.576;10.990;2023-04-24T14:39:34;1.97;;;1.77;;
3329;SDS011;1677;49.576;10.990;2023-04-24T14:42:00;3.43;;;2.27;;
3329;SDS011;1677;49.576;10.990;2023-04-24T14:44:26;2.70;;;2.40;;
3329;SDS011;1677;49.576;10.990;2023-04-24T14:46:52;2.63;;;2.17;;
3329;SDS011;1677;49.576;10.990;2023-04-24T14:49:18;2.17;;;1.90;;
3329;SDS011;1677;49.576;10.990;2023-04-24T14:51:43;2.47;;;2.10;;
3329;SDS011;1677;49.576;10.990;2023-04-24T14:54:09;4.10;;;1.67;;
3329;SDS011;1677;49.576;10.990;2023-04-24T14:56:35;4.33;;;2.00;;
3329;SDS011;1677;49.576;10.990;2023-04-24T14:59:00;2.87;;;1.60;;
3329;SDS011;1677;49.576;10.990;2023-04-24T15:01:26;3.40;;;2.20;;
3329;SDS011;1677;49.576;10.990;2023-04-24T15:03:52;3.00;;;2.10;;
3329;SDS011;1677;49.576;10.990;2023-04-24T15:06:18;2.83;;;2.33;;
3329;SDS011;1677;49.576;10.990;2023-04-24T15:08:43;3.00;;;2.60;;